Salinas Municipal Airport

Current Flights

Departures
Number Departure To Airline
Arrivals
Number Arrival From Airline
Info
Name: Salinas Municipal Airport
Identifier:  SNS/KSNS
Local Time:  19. May 07:19
City
Flights per Day
3 flights
Distance: 672km (417mi)
Punctuality
60% (1 flights per day delayed)
Delay Average: 29 minutes
Current Weather
 10 C (Humidity: 93%)
  4kt (7km/h / 4mph) from 140°
  9km (6 mi.)
 Mist
 METAR KSNS 191353Z 14004KT 6SM BR CLR 10/09 A2978 RMK AO2 SLP092 T01000089

Current Delays

Departures
N/A
Arrivals
N/A

Destinations

Top Destinations
Airport Flights
per week
Seats
per week
  Palo Alto (PAO) <1 - 0 0
  Santa Maria (SMX) <1 - 0 0
  San Jose (SJC) <1 - 0 0
  Watsonville (WVI) <1 - 0 0
  San Carlos (SQL) <1 - 0 0
  San Luis Obispo (SBP) <1 - 0 0

Airlines & Planes

Top Airlines
Airline Flights
per Day
Seats
per Day
Jet Charter Inc ( Franklin Lakes Nj ) 1 -
  Novair <1 -
  Nolinor Aviation <1 -
Nordwind Airlines <1 -
  National Airlines <1 -
  Flybe Nordic <1 -
Calstar <1 -
Private owner <1 -
Top Plane Types
Manufacturer Model Flights Seats
Cessna C172 0.8/day - 0
Beech B200 Super King Air 0.5/day - 0
Cirrus SR22 0.3/day - 0
Cessna C182 0.3/day - 0
Beech B300 Super King Air 350 0.2/day - 0
Cessna C560 0.2/day - 0